createdAt,value
2023-12-30T00:00:17.382Z,5.90
2023-12-30T00:02:46.190Z,5.90
2023-12-30T00:05:13.064Z,5.90
2023-12-30T00:07:39.915Z,6.00
2023-12-30T00:10:07.251Z,5.90
2023-12-30T00:12:34.787Z,5.90
2023-12-30T00:15:01.726Z,5.90
2023-12-30T00:17:28.714Z,5.90
2023-12-30T00:19:57.618Z,5.90
2023-12-30T00:22:24.791Z,5.80
2023-12-30T00:24:51.771Z,5.80
2023-12-30T00:27:19.211Z,5.80
2023-12-30T00:29:46.174Z,5.90
2023-12-30T00:32:13.619Z,5.80
2023-12-30T00:34:40.696Z,5.80
2023-12-30T00:37:08.001Z,5.80
2023-12-30T00:39:34.981Z,5.80
2023-12-30T00:42:01.952Z,5.80
2023-12-30T00:44:28.832Z,5.80
2023-12-30T00:46:55.767Z,5.80
2023-12-30T00:49:22.747Z,5.80
2023-12-30T00:51:49.762Z,5.80
2023-12-30T00:54:16.671Z,5.80
2023-12-30T00:56:43.647Z,5.80
2023-12-30T00:59:10.656Z,5.80
2023-12-30T01:01:37.729Z,5.80
2023-12-30T01:04:05.362Z,5.70
2023-12-30T01:06:32.423Z,5.80
2023-12-30T01:08:59.563Z,5.70
2023-12-30T01:11:26.936Z,5.70
2023-12-30T01:13:54.076Z,5.70
2023-12-30T01:16:21.126Z,5.70
2023-12-30T01:18:48.277Z,5.70
2023-12-30T01:21:15.404Z,5.60
2023-12-30T01:23:42.283Z,5.70
2023-12-30T01:26:09.240Z,5.60
2023-12-30T01:28:37.761Z,5.70
2023-12-30T01:31:04.999Z,5.70
2023-12-30T01:33:32.146Z,5.70
2023-12-30T01:35:59.075Z,5.60
2023-12-30T01:38:26.006Z,5.60
2023-12-30T01:40:54.324Z,5.60
2023-12-30T01:43:28.428Z,5.70
2023-12-30T01:45:59.392Z,5.60
2023-12-30T01:48:27.409Z,5.50
2023-12-30T01:50:56.366Z,5.50
2023-12-30T01:53:23.356Z,5.50
2023-12-30T01:55:51.913Z,5.50
2023-12-30T01:58:22.719Z,5.40
2023-12-30T02:00:50.316Z,5.40
2023-12-30T02:03:17.649Z,5.40
2023-12-30T02:05:47.295Z,5.40
2023-12-30T02:08:16.532Z,5.40
2023-12-30T02:10:43.641Z,5.40
2023-12-30T02:13:11.388Z,5.30
2023-12-30T02:15:38.987Z,5.30
2023-12-30T02:18:06.197Z,5.40
2023-12-30T02:20:35.098Z,5.40
2023-12-30T02:23:02.443Z,5.40
2023-12-30T02:25:29.571Z,5.40
2023-12-30T02:27:56.632Z,5.40
2023-12-30T02:30:25.552Z,5.40
2023-12-30T02:32:57.589Z,5.40
2023-12-30T02:35:24.843Z,5.40
2023-12-30T02:37:53.118Z,5.40
2023-12-30T02:40:20.328Z,5.50
2023-12-30T02:42:48.091Z,5.50
2023-12-30T02:45:15.140Z,5.50
2023-12-30T02:47:42.146Z,5.50
2023-12-30T02:50:09.424Z,5.40
2023-12-30T02:52:36.933Z,5.40
2023-12-30T02:55:06.149Z,5.40
2023-12-30T02:57:33.262Z,5.40
2023-12-30T03:00:14.751Z,5.40
2023-12-30T03:02:42.565Z,5.40
2023-12-30T03:05:10.122Z,5.40
2023-12-30T03:07:38.198Z,5.30
2023-12-30T03:10:06.320Z,5.40
2023-12-30T03:12:33.636Z,5.40
2023-12-30T03:15:00.593Z,5.40
2023-12-30T03:17:27.686Z,5.30
2023-12-30T03:19:54.935Z,5.30
2023-12-30T03:22:21.924Z,5.40
2023-12-30T03:24:48.947Z,5.30
2023-12-30T03:27:15.948Z,5.30
2023-12-30T03:29:45.985Z,5.40
2023-12-30T03:32:13.164Z,5.40
2023-12-30T03:34:40.688Z,5.30
2023-12-30T03:37:07.872Z,5.30
2023-12-30T03:39:34.726Z,5.40
2023-12-30T03:42:01.665Z,5.30
2023-12-30T03:44:29.967Z,5.30
2023-12-30T03:46:56.876Z,5.30
2023-12-30T03:49:25.280Z,5.40
2023-12-30T03:51:52.328Z,5.40
2023-12-30T03:54:19.433Z,5.50
2023-12-30T03:56:47.049Z,5.60
2023-12-30T03:59:14.141Z,5.60
2023-12-30T04:01:44.049Z,5.60
2023-12-30T04:04:12.005Z,5.60
2023-12-30T04:06:39.001Z,5.60
2023-12-30T04:09:06.254Z,5.50
2023-12-30T04:11:33.275Z,5.60
2023-12-30T04:14:00.281Z,5.50
2023-12-30T04:16:29.690Z,5.50
2023-12-30T04:18:57.196Z,5.40
2023-12-30T04:21:26.011Z,5.40
2023-12-30T04:23:52.956Z,5.40
2023-12-30T04:26:21.381Z,5.40
2023-12-30T04:28:48.389Z,5.30
2023-12-30T04:31:15.390Z,5.30
2023-12-30T04:33:42.649Z,5.30
2023-12-30T04:36:10.724Z,5.30
2023-12-30T04:38:37.614Z,5.30
2023-12-30T04:41:04.664Z,5.30
2023-12-30T04:43:31.671Z,5.30
2023-12-30T04:45:58.900Z,5.30
2023-12-30T04:48:25.981Z,5.30
2023-12-30T04:50:52.914Z,5.30
2023-12-30T04:53:19.885Z,5.30
2023-12-30T04:55:46.781Z,5.20
2023-12-30T04:58:13.794Z,5.20
2023-12-30T05:00:40.680Z,5.10
2023-12-30T05:03:07.744Z,5.10
2023-12-30T05:05:35.056Z,5.10
2023-12-30T05:08:05.122Z,5.10
2023-12-30T05:10:34.665Z,5.10
2023-12-30T05:13:03.024Z,5.10
2023-12-30T05:15:30.118Z,5.00
2023-12-30T05:17:57.307Z,5.10
2023-12-30T05:20:24.367Z,5.10
2023-12-30T05:22:51.204Z,5.10
2023-12-30T05:25:18.190Z,5.10
2023-12-30T05:27:45.216Z,5.10
2023-12-30T05:30:12.774Z,5.10
2023-12-30T05:32:39.886Z,5.10
2023-12-30T05:35:08.729Z,5.00
2023-12-30T05:37:35.860Z,4.90
2023-12-30T05:40:04.088Z,4.90
2023-12-30T05:42:31.751Z,4.90
2023-12-30T05:44:59.149Z,4.80
2023-12-30T05:47:26.101Z,4.80
2023-12-30T05:49:53.380Z,4.70
2023-12-30T05:52:22.132Z,4.70
2023-12-30T05:54:49.037Z,4.70
2023-12-30T05:57:16.418Z,4.60
2023-12-30T05:59:43.375Z,4.60
2023-12-30T06:02:11.189Z,4.60
2023-12-30T06:04:44.260Z,4.60
2023-12-30T06:07:11.287Z,4.50
2023-12-30T06:09:38.284Z,4.50
2023-12-30T06:12:05.463Z,4.50
2023-12-30T06:14:32.609Z,4.40
2023-12-30T06:16:59.563Z,4.40
2023-12-30T06:19:26.760Z,4.40
2023-12-30T06:21:53.798Z,4.40
2023-12-30T06:24:20.692Z,4.40
2023-12-30T06:26:47.722Z,4.40
2023-12-30T06:29:14.955Z,4.40
2023-12-30T06:31:43.015Z,4.40
2023-12-30T06:34:13.542Z,4.40
2023-12-30T06:36:44.599Z,4.40
2023-12-30T06:39:14.436Z,4.40
2023-12-30T06:41:41.995Z,4.40
2023-12-30T06:44:09.773Z,4.40
2023-12-30T06:46:36.835Z,4.40
2023-12-30T06:49:03.972Z,4.40
2023-12-30T06:51:31.369Z,4.40
2023-12-30T06:53:58.471Z,4.40
2023-12-30T06:56:25.564Z,4.50
2023-12-30T06:58:53.357Z,4.50
2023-12-30T07:01:22.067Z,4.50
2023-12-30T07:03:49.154Z,4.50
2023-12-30T07:06:16.361Z,4.50
2023-12-30T07:08:43.319Z,4.50
2023-12-30T07:11:10.194Z,4.50
2023-12-30T07:13:37.599Z,4.50
2023-12-30T07:16:04.931Z,4.60
2023-12-30T07:18:31.998Z,4.60
2023-12-30T07:20:58.987Z,4.60
2023-12-30T07:23:25.952Z,4.60
2023-12-30T07:25:53.540Z,4.70
2023-12-30T07:28:20.553Z,4.70
2023-12-30T07:30:47.664Z,4.80
2023-12-30T07:33:14.921Z,4.90
2023-12-30T07:35:42.134Z,4.90
2023-12-30T07:38:09.082Z,4.90
2023-12-30T07:40:36.092Z,4.90
2023-12-30T07:43:03.386Z,4.90
2023-12-30T07:45:30.620Z,5.00
2023-12-30T07:47:57.544Z,5.00
2023-12-30T07:50:25.214Z,5.00
2023-12-30T07:52:52.213Z,5.00
2023-12-30T07:55:19.308Z,5.00
2023-12-30T07:57:46.369Z,5.00
2023-12-30T08:00:13.807Z,5.00
2023-12-30T08:02:42.270Z,5.00
2023-12-30T08:05:09.456Z,5.00
2023-12-30T08:07:36.384Z,5.00
2023-12-30T08:10:03.463Z,5.10
2023-12-30T08:12:30.440Z,5.20
2023-12-30T08:14:57.463Z,5.30
2023-12-30T08:17:24.580Z,5.30
2023-12-30T08:19:51.887Z,5.30
2023-12-30T08:22:20.243Z,5.30
2023-12-30T08:24:47.379Z,5.40
2023-12-30T08:27:14.465Z,5.50
2023-12-30T08:29:41.428Z,5.60
2023-12-30T08:32:08.592Z,5.70
2023-12-30T08:34:35.602Z,5.70
2023-12-30T08:37:10.180Z,5.80
2023-12-30T08:39:39.048Z,5.90
2023-12-30T08:42:07.104Z,6.00
2023-12-30T08:44:34.874Z,6.10
2023-12-30T08:47:01.867Z,6.10
2023-12-30T08:49:28.984Z,6.20
2023-12-30T08:51:56.014Z,6.30
2023-12-30T08:54:22.992Z,6.40
2023-12-30T08:56:52.035Z,6.50
2023-12-30T08:59:19.024Z,6.60
2023-12-30T09:01:45.943Z,6.60
2023-12-30T09:04:13.643Z,6.60
2023-12-30T09:06:40.714Z,6.60
2023-12-30T09:09:07.632Z,6.60
2023-12-30T09:11:39.865Z,6.60
2023-12-30T09:14:07.137Z,6.70
2023-12-30T09:16:34.666Z,6.70
2023-12-30T09:19:01.978Z,6.70
2023-12-30T09:21:31.052Z,6.80
2023-12-30T09:24:00.630Z,6.90
2023-12-30T09:26:27.649Z,7.00
2023-12-30T09:28:54.655Z,7.00
2023-12-30T09:31:21.921Z,7.10
2023-12-30T09:33:50.446Z,7.30
2023-12-30T09:36:20.788Z,7.50
2023-12-30T09:38:47.956Z,7.60
2023-12-30T09:41:15.125Z,7.80
2023-12-30T09:43:43.738Z,7.70
2023-12-30T09:46:11.321Z,7.70
2023-12-30T09:48:40.781Z,7.60
2023-12-30T09:51:08.443Z,7.50
2023-12-30T09:53:35.367Z,7.50
2023-12-30T09:56:03.007Z,7.50
2023-12-30T09:58:30.790Z,7.50
2023-12-30T10:00:57.973Z,7.50
2023-12-30T10:03:25.077Z,7.50
2023-12-30T10:05:54.178Z,7.50
2023-12-30T10:08:21.912Z,7.50
2023-12-30T10:10:53.988Z,7.60
2023-12-30T10:13:28.234Z,7.60
2023-12-30T10:16:00.334Z,7.50
2023-12-30T10:18:27.636Z,7.60
2023-12-30T10:20:55.255Z,7.70
2023-12-30T10:23:22.747Z,7.70
2023-12-30T10:25:49.881Z,7.70
2023-12-30T10:28:17.854Z,7.70
2023-12-30T10:30:44.926Z,7.80
2023-12-30T10:33:13.800Z,7.80
2023-12-30T10:35:44.771Z,7.90
2023-12-30T10:38:14.062Z,7.90
2023-12-30T10:40:41.648Z,7.90
2023-12-30T10:43:10.051Z,8.00
2023-12-30T10:45:37.475Z,8.00
2023-12-30T10:48:07.345Z,8.00
2023-12-30T10:50:38.344Z,8.00
2023-12-30T10:53:17.385Z,8.00
2023-12-30T10:55:50.595Z,8.00
2023-12-30T10:58:23.714Z,8.00
2023-12-30T11:00:58.443Z,8.10
2023-12-30T11:03:26.884Z,8.10
2023-12-30T11:06:12.924Z,8.10
2023-12-30T11:08:45.261Z,8.20
2023-12-30T11:11:15.972Z,8.20
2023-12-30T11:13:43.391Z,8.20
2023-12-30T11:16:21.096Z,8.20
2023-12-30T11:18:51.125Z,8.30
2023-12-30T11:21:44.966Z,8.50
2023-12-30T11:24:13.808Z,8.60
2023-12-30T11:26:45.839Z,8.60
2023-12-30T11:29:17.170Z,8.70
2023-12-30T11:31:46.500Z,8.70
2023-12-30T11:34:18.842Z,8.70
2023-12-30T11:36:48.440Z,8.70
2023-12-30T11:39:28.227Z,8.70
2023-12-30T11:41:59.336Z,8.70
2023-12-30T11:44:26.528Z,8.70
2023-12-30T11:46:53.728Z,8.80
2023-12-30T11:49:22.493Z,8.80
2023-12-30T11:51:50.221Z,8.80
2023-12-30T11:54:20.118Z,8.90
2023-12-30T11:56:48.319Z,8.90
2023-12-30T11:59:15.290Z,8.90
2023-12-30T12:01:44.128Z,9.00
2023-12-30T12:04:11.314Z,9.00
2023-12-30T12:06:38.536Z,9.00
2023-12-30T12:09:07.429Z,9.10
2023-12-30T12:11:34.487Z,9.10
2023-12-30T12:14:03.007Z,9.20
2023-12-30T12:16:33.286Z,9.20
2023-12-30T12:19:05.016Z,9.20
2023-12-30T12:21:32.264Z,9.30
2023-12-30T12:23:59.618Z,9.20
2023-12-30T12:26:26.582Z,9.20
2023-12-30T12:28:55.084Z,9.20
2023-12-30T12:31:22.143Z,9.30
2023-12-30T12:33:49.798Z,9.30
2023-12-30T12:36:19.200Z,9.30
2023-12-30T12:38:46.340Z,9.30
2023-12-30T12:41:14.154Z,9.30
2023-12-30T12:43:41.125Z,9.30
2023-12-30T12:46:10.100Z,9.30
2023-12-30T12:48:39.831Z,9.30
2023-12-30T12:51:07.542Z,9.40
2023-12-30T12:53:34.537Z,9.30
2023-12-30T12:56:02.285Z,9.40
2023-12-30T12:58:29.325Z,9.40
2023-12-30T13:00:56.339Z,9.30
2023-12-30T13:03:24.469Z,9.30
2023-12-30T13:05:51.416Z,9.30
2023-12-30T13:08:19.036Z,9.30
2023-12-30T13:10:49.878Z,9.30
2023-12-30T13:13:17.369Z,9.30
2023-12-30T13:15:46.134Z,9.40
2023-12-30T13:18:17.897Z,9.40
2023-12-30T13:20:46.918Z,9.40
2023-12-30T13:23:15.194Z,9.40
2023-12-30T13:25:42.811Z,9.30
2023-12-30T13:28:10.480Z,9.40
2023-12-30T13:30:37.812Z,9.40
2023-12-30T13:33:10.356Z,9.50
2023-12-30T13:35:39.973Z,9.50
2023-12-30T13:38:13.516Z,9.60
2023-12-30T13:40:42.678Z,9.70
2023-12-30T13:43:13.358Z,9.80
2023-12-30T13:45:48.510Z,9.80
2023-12-30T13:48:16.073Z,9.80
2023-12-30T13:50:56.564Z,9.80
2023-12-30T13:53:26.262Z,9.80
2023-12-30T13:55:54.972Z,9.90
2023-12-30T13:58:22.416Z,9.90
2023-12-30T14:00:49.535Z,9.80
2023-12-30T14:03:17.503Z,9.80
2023-12-30T14:05:49.155Z,9.70
2023-12-30T14:08:43.447Z,9.70
2023-12-30T14:11:22.383Z,9.60
2023-12-30T14:13:52.294Z,9.60
2023-12-30T14:16:19.349Z,9.50
2023-12-30T14:18:46.641Z,9.40
2023-12-30T14:21:13.557Z,9.40
2023-12-30T14:23:41.714Z,9.30
2023-12-30T14:26:08.730Z,9.30
2023-12-30T14:28:35.797Z,9.30
2023-12-30T14:31:04.141Z,9.20
2023-12-30T14:33:31.983Z,9.20
2023-12-30T14:36:00.622Z,9.10
2023-12-30T14:38:27.867Z,9.10
2023-12-30T14:40:54.830Z,9.10
2023-12-30T14:43:22.098Z,9.10
2023-12-30T14:45:49.156Z,9.10
2023-12-30T14:48:16.388Z,9.10
2023-12-30T14:50:43.847Z,9.10
2023-12-30T14:53:14.495Z,9.10
2023-12-30T14:55:41.773Z,9.10
2023-12-30T14:58:10.801Z,9.10
2023-12-30T15:00:38.038Z,9.10
2023-12-30T15:03:05.960Z,9.00
2023-12-30T15:05:33.123Z,9.00
2023-12-30T15:08:00.668Z,9.00
2023-12-30T15:10:29.759Z,9.00
2023-12-30T15:12:56.899Z,9.00
2023-12-30T15:15:24.233Z,9.00
2023-12-30T15:17:51.940Z,9.00
2023-12-30T15:20:20.714Z,9.00
2023-12-30T15:22:48.174Z,8.90
2023-12-30T15:25:15.529Z,8.90
2023-12-30T15:27:43.174Z,9.00
2023-12-30T15:30:11.094Z,9.00
2023-12-30T15:32:39.457Z,9.00
2023-12-30T15:35:08.293Z,9.00
2023-12-30T15:37:35.515Z,9.10
2023-12-30T15:40:02.553Z,9.10
2023-12-30T15:42:29.863Z,9.20
2023-12-30T15:44:56.871Z,9.20
2023-12-30T15:47:25.639Z,9.20
2023-12-30T15:49:52.898Z,9.20
2023-12-30T15:52:19.951Z,9.20
2023-12-30T15:54:48.609Z,9.20
2023-12-30T15:57:15.593Z,9.20
2023-12-30T15:59:42.926Z,9.20
2023-12-30T16:02:09.889Z,9.20
2023-12-30T16:04:36.917Z,9.20
2023-12-30T16:07:04.605Z,9.30
2023-12-30T16:09:31.736Z,9.30
2023-12-30T16:11:59.209Z,9.30
2023-12-30T16:14:26.445Z,9.30
2023-12-30T16:16:53.539Z,9.30
2023-12-30T16:19:21.354Z,9.30
2023-12-30T16:21:50.824Z,9.40
2023-12-30T16:24:21.015Z,9.40
2023-12-30T16:26:49.124Z,9.40
2023-12-30T16:29:16.288Z,9.40
2023-12-30T16:31:43.177Z,9.30
2023-12-30T16:34:10.369Z,9.40
2023-12-30T16:36:38.132Z,9.40
2023-12-30T16:39:05.489Z,9.40
2023-12-30T16:41:32.721Z,9.40
2023-12-30T16:44:00.193Z,9.40
2023-12-30T16:46:27.680Z,9.40
2023-12-30T16:48:56.190Z,9.40
2023-12-30T16:51:23.385Z,9.40
2023-12-30T16:53:51.475Z,9.40
2023-12-30T16:56:19.813Z,9.40
2023-12-30T16:58:47.086Z,9.50
2023-12-30T17:01:14.201Z,9.50
2023-12-30T17:03:41.675Z,9.50
2023-12-30T17:06:08.767Z,9.40
2023-12-30T17:08:35.982Z,9.50
2023-12-30T17:11:03.989Z,9.50
2023-12-30T17:13:35.510Z,9.50
2023-12-30T17:16:12.482Z,9.50
2023-12-30T17:18:39.596Z,9.50
2023-12-30T17:21:06.852Z,9.50
2023-12-30T17:23:34.007Z,9.50
2023-12-30T17:26:01.121Z,9.50
2023-12-30T17:28:28.216Z,9.40
2023-12-30T17:30:55.678Z,9.40
2023-12-30T17:33:22.943Z,9.40
2023-12-30T17:35:51.863Z,9.40
2023-12-30T17:38:20.282Z,9.40
2023-12-30T17:40:47.503Z,9.40
2023-12-30T17:43:14.787Z,9.50
2023-12-30T17:45:41.856Z,9.40
2023-12-30T17:48:09.335Z,9.40
2023-12-30T17:50:38.867Z,9.40
2023-12-30T17:53:06.435Z,9.40
2023-12-30T17:55:33.710Z,9.40
2023-12-30T17:58:00.869Z,9.40
2023-12-30T18:00:28.024Z,9.40
2023-12-30T18:02:56.463Z,9.40
2023-12-30T18:05:23.687Z,9.40
2023-12-30T18:07:51.697Z,9.40
2023-12-30T18:10:21.745Z,9.40
2023-12-30T18:12:51.686Z,9.50
2023-12-30T18:15:18.957Z,9.50
2023-12-30T18:17:50.247Z,9.40
2023-12-30T18:20:20.650Z,9.30
2023-12-30T18:22:48.246Z,9.30
2023-12-30T18:25:15.507Z,9.20
2023-12-30T18:27:43.313Z,9.10
2023-12-30T18:30:13.785Z,8.90
2023-12-30T18:32:41.325Z,8.90
2023-12-30T18:35:08.606Z,8.80
2023-12-30T18:37:36.475Z,8.80
2023-12-30T18:40:09.425Z,8.80
2023-12-30T18:42:38.349Z,8.80
2023-12-30T18:45:05.873Z,8.80
2023-12-30T18:47:41.522Z,8.80
2023-12-30T18:50:18.684Z,8.80
2023-12-30T18:52:51.083Z,8.90
2023-12-30T18:55:18.398Z,9.00
2023-12-30T18:57:49.319Z,9.00
2023-12-30T19:00:36.724Z,9.00
2023-12-30T19:03:10.243Z,9.00
2023-12-30T19:05:38.545Z,9.00
2023-12-30T19:08:06.213Z,9.00
2023-12-30T19:10:46.118Z,8.90
2023-12-30T19:13:13.332Z,8.90
2023-12-30T19:15:41.151Z,8.90
2023-12-30T19:18:08.207Z,8.90
2023-12-30T19:20:39.603Z,8.80
2023-12-30T19:23:08.479Z,8.80
2023-12-30T19:25:35.992Z,8.80
2023-12-30T19:28:12.725Z,8.70
2023-12-30T19:30:40.873Z,8.70
2023-12-30T19:33:10.420Z,8.70
2023-12-30T19:35:42.000Z,8.60
2023-12-30T19:38:09.378Z,8.60
2023-12-30T19:40:36.455Z,8.60
2023-12-30T19:43:05.420Z,8.50
2023-12-30T19:45:34.143Z,8.60
2023-12-30T19:48:02.579Z,8.60
2023-12-30T19:50:31.588Z,8.70
2023-12-30T19:52:58.580Z,8.90
2023-12-30T19:55:30.953Z,8.90
2023-12-30T19:57:59.040Z,9.00
2023-12-30T20:00:26.232Z,9.00
2023-12-30T20:02:53.832Z,9.00
2023-12-30T20:05:21.228Z,9.00
2023-12-30T20:07:48.323Z,8.90
2023-12-30T20:10:15.520Z,8.80
2023-12-30T20:12:43.401Z,8.80
2023-12-30T20:15:11.453Z,8.70
2023-12-30T20:17:40.836Z,8.70
2023-12-30T20:20:09.766Z,8.70
2023-12-30T20:22:51.917Z,8.70
2023-12-30T20:25:23.884Z,8.80
2023-12-30T20:27:53.698Z,8.80
2023-12-30T20:30:21.868Z,8.90
2023-12-30T20:32:50.475Z,8.90
2023-12-30T20:35:18.404Z,8.90
2023-12-30T20:37:46.622Z,8.90
2023-12-30T20:40:13.845Z,8.90
2023-12-30T20:42:42.304Z,8.90
2023-12-30T20:45:14.206Z,8.90
2023-12-30T20:47:42.130Z,8.80
2023-12-30T20:50:09.400Z,8.80
2023-12-30T20:52:39.030Z,8.80
2023-12-30T20:55:09.654Z,8.70
2023-12-30T20:57:36.620Z,8.70
2023-12-30T21:00:05.204Z,8.70
2023-12-30T21:02:33.208Z,8.90
2023-12-30T21:05:00.215Z,9.00
2023-12-30T21:07:27.341Z,9.10
2023-12-30T21:09:54.256Z,9.10
2023-12-30T21:12:22.593Z,9.10
2023-12-30T21:14:49.548Z,9.10
2023-12-30T21:17:16.831Z,9.10
2023-12-30T21:19:44.872Z,9.10
2023-12-30T21:22:12.231Z,9.10
2023-12-30T21:24:40.024Z,9.10
2023-12-30T21:27:10.485Z,9.20
2023-12-30T21:29:37.468Z,9.20
2023-12-30T21:32:05.380Z,9.30
2023-12-30T21:34:32.388Z,9.30
2023-12-30T21:36:59.315Z,9.40
2023-12-30T21:39:26.743Z,9.30
2023-12-30T21:41:54.197Z,9.30
2023-12-30T21:44:21.288Z,9.30
2023-12-30T21:46:48.379Z,9.30
2023-12-30T21:49:16.608Z,9.30
2023-12-30T21:51:44.984Z,9.30
2023-12-30T21:54:13.373Z,9.30
2023-12-30T21:56:41.772Z,9.30
2023-12-30T21:59:09.423Z,9.30
2023-12-30T22:01:37.593Z,9.40
2023-12-30T22:04:06.226Z,9.40
2023-12-30T22:06:34.008Z,9.40
2023-12-30T22:09:01.161Z,9.40
2023-12-30T22:11:28.933Z,9.40
2023-12-30T22:13:56.687Z,9.40
2023-12-30T22:16:23.816Z,9.40
2023-12-30T22:18:51.112Z,9.40
2023-12-30T22:21:19.231Z,9.40
2023-12-30T22:23:48.449Z,9.50
2023-12-30T22:26:21.509Z,9.50
2023-12-30T22:28:48.588Z,9.50
2023-12-30T22:31:15.713Z,9.60
2023-12-30T22:33:43.335Z,9.50
2023-12-30T22:36:10.711Z,9.60
2023-12-30T22:38:39.007Z,9.50
2023-12-30T22:41:05.993Z,9.40
2023-12-30T22:43:34.191Z,9.40
2023-12-30T22:46:04.935Z,9.40
2023-12-30T22:48:32.005Z,9.40
2023-12-30T22:50:58.964Z,9.30
2023-12-30T22:53:25.914Z,9.30
2023-12-30T22:55:53.313Z,9.20
2023-12-30T22:58:20.317Z,9.20
2023-12-30T23:00:51.241Z,9.10
2023-12-30T23:03:18.743Z,9.10
2023-12-30T23:05:48.905Z,9.10
2023-12-30T23:08:16.427Z,9.00
2023-12-30T23:10:43.530Z,9.10
2023-12-30T23:13:10.549Z,9.00
2023-12-30T23:15:38.196Z,8.90
2023-12-30T23:18:05.934Z,8.90
2023-12-30T23:20:34.172Z,8.90
2023-12-30T23:23:01.707Z,8.80
2023-12-30T23:25:28.955Z,8.90
2023-12-30T23:27:55.970Z,8.90
2023-12-30T23:30:22.940Z,8.90
2023-12-30T23:32:49.893Z,8.90
2023-12-30T23:35:16.856Z,8.90
2023-12-30T23:37:43.855Z,8.90
2023-12-30T23:40:11.078Z,9.00
2023-12-30T23:42:38.428Z,9.00
2023-12-30T23:45:05.853Z,9.00
2023-12-30T23:47:33.190Z,9.00
2023-12-30T23:50:00.171Z,9.00
2023-12-30T23:52:27.555Z,8.90
2023-12-30T23:54:55.550Z,8.90
2023-12-30T23:57:22.535Z,8.90
2023-12-30T23:59:49.481Z,8.90
